Madison, WI (53716)

4:45 PM CDT on August 23, 2016 (GMT -0500)
| | Change Station

Elev -9999 ft 0.00 °N, 0.00 °E | Updated

Mostly Cloudy
Mostly Cloudy
74 °F
Feels Like 74 °F
N
9
Wind Variable Wind from SSE
Gusts 17 mph

Today
High -- | Low -- °F
--% Chance of Precip.
Yesterday
High -- | Low -- °F
Precip. -- in
Pressure 30.07 in
Visibility 10.0 miles
Clouds Scattered Clouds 4300 ft
Mostly Cloudy 25000 ft
Dew Point 63 °F
Humidity 68%
Rainfall --
Snow Depth Not available.
6:12 AM 7:46 PM
Waning Gibbous, 64% visible
METAR KMSN 232053Z 19015KT 10SM SCT043 BKN250 26/16 A3008 RMK AO2 SLP182 T02610156 56014 $
Pressure 30.07 in
Visibility 10.0 miles
Clouds Scattered Clouds 4300 ft
Mostly Cloudy 25000 ft
Dew Point 63 °F
Humidity 68%
Rainfall --
Snow Depth Not available.
6:12 AM 7:46 PM
Waning Gibbous, 64% visible
METAR KMSN 232053Z 19015KT 10SM SCT043 BKN250 26/16 A3008 RMK AO2 SLP182 T02610156 56014 $

10-Day Weather Forecast

Almanac

Astronomy

Aug. 23, 2016 Rise Set
Actual Time
Civil Twilight
Nautical Twilight
Astronomical Twilight
Moon
Length of Visible Light
Length of Day
Tomorrow will be .
, % of the Moon is Illuminated

Today's Extremes

State Highs State Lows

Community

WunderPhotos

Upload Photos

1,934,470 photos uploaded!

WunderBlog® & News

Nearby

Air Quality

  Air Quality AQ Index Pollutant
Not available.

Snow Depth

Station Depth Elevation

Earthquake Activity

City Distance Mag. Time & Date
Minimum magnitude displayed is 2.5.

Coastal Water Temperatures

Place Temperature

Stations

Nearby Weather Stations

Station Location Temp. Windchill Dew Point Humidity Wind Precip. Elev Updated Type
                   

Watches & Warnings

There are currently no watches in effect.